createdAt,value
2023-03-12T00:02:00.009Z,-1.49
2023-03-12T00:04:27.003Z,-1.50
2023-03-12T00:06:53.820Z,-1.37
2023-03-12T00:09:20.645Z,-1.50
2023-03-12T00:11:47.402Z,-1.40
2023-03-12T00:14:14.038Z,-1.14
2023-03-12T00:16:40.823Z,-1.14
2023-03-12T00:19:07.556Z,-1.21
2023-03-12T00:21:34.130Z,-1.41
2023-03-12T00:24:00.716Z,-1.58
2023-03-12T00:26:27.627Z,-1.57
2023-03-12T00:28:54.241Z,-1.61
2023-03-12T00:31:32.065Z,-1.50
2023-03-12T00:33:59.917Z,-1.52
2023-03-12T00:36:29.417Z,-1.62
2023-03-12T00:38:57.691Z,-1.60
2023-03-12T00:41:24.727Z,-1.48
2023-03-12T00:43:51.798Z,-1.43
2023-03-12T00:46:19.414Z,-1.34
2023-03-12T00:48:46.132Z,-1.37
2023-03-12T00:51:12.951Z,-1.54
2023-03-12T00:53:39.576Z,-1.44
2023-03-12T00:56:07.061Z,-1.50
2023-03-12T00:58:33.922Z,-1.51
2023-03-12T01:01:00.724Z,-1.33
2023-03-12T01:03:27.737Z,-1.36
2023-03-12T01:05:57.356Z,-1.38
2023-03-12T01:08:25.157Z,-1.44
2023-03-12T01:10:52.040Z,-1.49
2023-03-12T01:13:18.945Z,-1.54
2023-03-12T01:15:45.664Z,-1.43
2023-03-12T01:18:12.369Z,-1.39
2023-03-12T01:20:41.175Z,-1.38
2023-03-12T01:23:07.942Z,-1.45
2023-03-12T01:25:35.099Z,-1.50
2023-03-12T01:28:02.368Z,-1.59
2023-03-12T01:30:29.597Z,-1.55
2023-03-12T01:32:56.297Z,-1.48
2023-03-12T01:35:23.130Z,-1.39
2023-03-12T01:37:49.803Z,-1.73
2023-03-12T01:40:19.077Z,-1.85
2023-03-12T01:42:55.716Z,-1.79
2023-03-12T01:46:16.590Z,-1.64
2023-03-12T01:48:48.292Z,-1.61
2023-03-12T01:51:16.549Z,-1.52
2023-03-12T01:53:46.438Z,-1.51
2023-03-12T01:56:13.939Z,-1.42
2023-03-12T01:58:43.744Z,-1.40
2023-03-12T02:01:10.779Z,-1.29
2023-03-12T02:03:53.718Z,-1.34
2023-03-12T02:06:32.119Z,-1.37
2023-03-12T02:08:59.975Z,-1.22
2023-03-12T02:11:27.757Z,-1.19
2023-03-12T02:13:55.016Z,-1.19
2023-03-12T02:16:22.061Z,-1.25
2023-03-12T02:18:50.764Z,-1.23
2023-03-12T02:21:21.797Z,-1.09
2023-03-12T02:24:38.073Z,-0.96
2023-03-12T02:27:05.590Z,-1.00
2023-03-12T02:29:33.759Z,-0.95
2023-03-12T02:32:03.467Z,-0.98
2023-03-12T02:34:30.733Z,-0.97
2023-03-12T02:36:58.010Z,-1.01
2023-03-12T02:39:25.257Z,-1.00
2023-03-12T02:41:59.176Z,-0.90
2023-03-12T02:44:27.847Z,-0.87
2023-03-12T02:46:57.415Z,-1.06
2023-03-12T02:49:27.929Z,-1.05
2023-03-12T02:51:54.920Z,-1.22
2023-03-12T02:54:22.904Z,-1.25
2023-03-12T02:56:51.113Z,-1.09
2023-03-12T02:59:18.426Z,-1.07
2023-03-12T03:01:45.537Z,-1.07
2023-03-12T03:04:13.649Z,-1.10
2023-03-12T03:06:42.417Z,-0.95
2023-03-12T03:09:09.877Z,-1.09
2023-03-12T03:11:38.492Z,-1.23
2023-03-12T03:14:07.095Z,-1.00
2023-03-12T03:16:34.982Z,-0.88
2023-03-12T03:19:02.275Z,-1.00
2023-03-12T03:21:29.636Z,-1.12
2023-03-12T03:23:56.715Z,-0.88
2023-03-12T03:26:24.819Z,-0.88
2023-03-12T03:28:51.970Z,-0.88
2023-03-12T03:31:18.875Z,-0.81
2023-03-12T03:33:46.695Z,-0.81
2023-03-12T03:36:16.011Z,-0.79
2023-03-12T03:38:49.926Z,-0.72
2023-03-12T03:41:19.291Z,-0.73
2023-03-12T03:43:47.282Z,-0.78
2023-03-12T03:46:16.052Z,-0.81
2023-03-12T03:48:43.474Z,-0.78
2023-03-12T03:51:11.943Z,-0.84
2023-03-12T03:53:38.708Z,-0.69
2023-03-12T03:56:10.492Z,-0.62
2023-03-12T03:58:38.759Z,-0.62
2023-03-12T04:01:06.934Z,-0.69
2023-03-12T04:03:35.229Z,-0.59
2023-03-12T04:06:05.356Z,-0.68
2023-03-12T04:08:36.311Z,-0.55
2023-03-12T04:11:09.475Z,-0.81
2023-03-12T04:13:36.857Z,-0.86
2023-03-12T04:16:04.708Z,-0.76
2023-03-12T04:18:31.545Z,-0.72
2023-03-12T04:20:58.393Z,-0.60
2023-03-12T04:23:27.060Z,-0.68
2023-03-12T04:25:54.509Z,-0.64
2023-03-12T04:28:21.305Z,-0.77
2023-03-12T04:30:59.930Z,-0.65
2023-03-12T04:33:28.525Z,-0.74
2023-03-12T04:35:55.854Z,-0.63
2023-03-12T04:38:24.585Z,-0.70
2023-03-12T04:41:09.454Z,-0.61
2023-03-12T04:43:36.936Z,-0.64
2023-03-12T04:46:04.569Z,-0.86
2023-03-12T04:48:32.575Z,-0.79
2023-03-12T04:51:01.202Z,-0.70
2023-03-12T04:53:28.503Z,-0.81
2023-03-12T04:55:56.740Z,-0.90
2023-03-12T04:58:23.772Z,-0.79
2023-03-12T05:00:50.863Z,-0.70
2023-03-12T05:03:18.995Z,-0.72
2023-03-12T05:05:47.549Z,-0.63
2023-03-12T05:08:16.016Z,-0.56
2023-03-12T05:10:48.254Z,-0.62
2023-03-12T05:13:19.225Z,-0.57
2023-03-12T05:15:48.855Z,-0.57
2023-03-12T05:18:17.268Z,-0.50
2023-03-12T05:20:45.147Z,-0.78
2023-03-12T05:23:11.814Z,-0.57
2023-03-12T05:25:41.749Z,-0.53
2023-03-12T05:28:11.463Z,-0.69
2023-03-12T05:30:41.550Z,-0.55
2023-03-12T05:33:11.826Z,-0.47
2023-03-12T05:35:40.829Z,-0.44
2023-03-12T05:38:09.364Z,-0.52
2023-03-12T05:40:37.192Z,-0.47
2023-03-12T05:43:04.704Z,-0.56
2023-03-12T05:45:33.550Z,-0.49
2023-03-12T05:48:00.585Z,-0.41
2023-03-12T05:50:27.711Z,-0.59
2023-03-12T05:52:57.507Z,-0.53
2023-03-12T05:55:25.864Z,-0.58
2023-03-12T05:57:54.638Z,-0.44
2023-03-12T06:00:24.584Z,-0.36
2023-03-12T06:02:52.275Z,-0.50
2023-03-12T06:05:19.120Z,-0.48
2023-03-12T06:07:46.004Z,-0.53
2023-03-12T06:10:16.802Z,-0.38
2023-03-12T06:12:46.309Z,-0.27
2023-03-12T06:15:16.336Z,-0.32
2023-03-12T06:17:43.485Z,-0.43
2023-03-12T06:20:12.667Z,-0.31
2023-03-12T06:22:41.133Z,-0.16
2023-03-12T06:25:08.332Z,-0.18
2023-03-12T06:27:35.883Z,-0.16
2023-03-12T06:30:06.709Z,-0.15
2023-03-12T06:32:35.709Z,-0.30
2023-03-12T06:35:06.304Z,-0.24
2023-03-12T06:37:33.733Z,-0.18
2023-03-12T06:40:00.529Z,-0.11
2023-03-12T06:42:28.150Z,0.00
2023-03-12T06:44:55.104Z,-0.06
2023-03-12T06:47:23.372Z,-0.01
2023-03-12T06:49:52.601Z,0.02
2023-03-12T06:52:21.814Z,0.07
2023-03-12T06:54:57.148Z,0.09
2023-03-12T06:57:33.383Z,0.09
2023-03-12T07:00:06.375Z,0.16
2023-03-12T07:02:39.433Z,0.33
2023-03-12T07:05:11.005Z,0.37
2023-03-12T07:07:40.818Z,0.38
2023-03-12T07:10:12.108Z,0.47
2023-03-12T07:12:41.699Z,0.61
2023-03-12T07:15:10.531Z,0.63
2023-03-12T07:17:37.468Z,0.63
2023-03-12T07:20:05.554Z,0.71
2023-03-12T07:22:33.353Z,0.77
2023-03-12T07:25:02.932Z,0.84
2023-03-12T07:27:31.547Z,1.00
2023-03-12T07:30:01.863Z,1.03
2023-03-12T07:32:33.392Z,0.99
2023-03-12T07:35:10.651Z,1.13
2023-03-12T07:37:56.096Z,1.28
2023-03-12T07:40:33.534Z,1.50
2023-03-12T07:43:03.460Z,1.64
2023-03-12T07:45:42.879Z,1.71
2023-03-12T07:48:27.485Z,1.97
2023-03-12T07:50:56.935Z,1.88
2023-03-12T07:53:32.337Z,1.95
2023-03-12T07:56:04.528Z,2.05
2023-03-12T07:58:37.204Z,2.06
2023-03-12T08:01:19.228Z,2.18
2023-03-12T08:04:00.314Z,2.02
2023-03-12T08:06:45.102Z,2.02
2023-03-12T08:09:20.560Z,2.11
2023-03-12T08:11:50.350Z,2.12
2023-03-12T08:14:17.197Z,2.17
2023-03-12T08:16:54.879Z,2.19
2023-03-12T08:19:39.183Z,2.22
2023-03-12T08:22:20.167Z,2.34
2023-03-12T08:24:48.883Z,2.43
2023-03-12T08:27:23.234Z,2.48
2023-03-12T08:30:11.999Z,2.50
2023-03-12T08:32:44.508Z,2.46
2023-03-12T08:35:12.637Z,2.63
2023-03-12T08:37:42.071Z,2.70
2023-03-12T08:40:14.609Z,2.61
2023-03-12T08:42:44.432Z,2.71
2023-03-12T08:45:14.788Z,2.79
2023-03-12T08:47:44.181Z,2.83
2023-03-12T08:50:15.054Z,2.97
2023-03-12T08:52:42.892Z,3.04
2023-03-12T08:55:11.198Z,3.18
2023-03-12T08:57:38.760Z,3.32
2023-03-12T09:00:11.555Z,3.31
2023-03-12T09:02:39.522Z,3.31
2023-03-12T09:05:10.704Z,3.30
2023-03-12T09:07:42.552Z,3.34
2023-03-12T09:10:10.844Z,3.47
2023-03-12T09:12:37.601Z,3.48
2023-03-12T09:15:08.356Z,3.53
2023-03-12T09:17:45.969Z,3.64
2023-03-12T09:20:17.066Z,3.73
2023-03-12T09:22:46.946Z,3.78
2023-03-12T09:25:15.135Z,3.82
2023-03-12T09:27:47.784Z,3.77
2023-03-12T09:30:19.972Z,3.84
2023-03-12T09:32:48.662Z,3.86
2023-03-12T09:35:16.779Z,3.94
2023-03-12T09:37:44.795Z,3.96
2023-03-12T09:40:20.981Z,4.05
2023-03-12T09:42:52.103Z,4.24
2023-03-12T09:45:26.722Z,4.21
2023-03-12T09:47:56.464Z,4.19
2023-03-12T09:50:30.875Z,4.32
2023-03-12T09:53:03.725Z,4.42
2023-03-12T09:55:44.859Z,4.31
2023-03-12T09:58:26.053Z,4.32
2023-03-12T10:01:23.013Z,4.38
2023-03-12T10:04:10.127Z,4.53
2023-03-12T10:07:01.951Z,4.56
2023-03-12T10:09:41.143Z,4.57
2023-03-12T10:12:23.320Z,4.47
2023-03-12T10:15:23.269Z,4.44
2023-03-12T10:18:32.008Z,4.50
2023-03-12T10:21:25.207Z,4.65
2023-03-12T10:24:09.389Z,4.75
2023-03-12T10:26:46.146Z,4.80
2023-03-12T10:29:39.132Z,4.74
2023-03-12T10:32:20.959Z,4.74
2023-03-12T10:35:21.995Z,4.76
2023-03-12T10:37:55.277Z,4.73
2023-03-12T10:40:31.532Z,4.77
2023-03-12T10:43:03.842Z,4.72
2023-03-12T10:46:04.216Z,4.72
2023-03-12T10:48:36.477Z,4.68
2023-03-12T10:51:15.904Z,4.61
2023-03-12T10:53:49.591Z,4.60
2023-03-12T10:56:21.462Z,4.72
2023-03-12T10:58:53.864Z,4.69
2023-03-12T11:01:32.617Z,4.67
2023-03-12T11:04:31.432Z,4.72
2023-03-12T11:07:20.664Z,4.72
2023-03-12T11:10:14.690Z,4.65
2023-03-12T11:12:58.869Z,4.66
2023-03-12T11:15:56.594Z,4.71
2023-03-12T11:18:45.612Z,4.71
2023-03-12T11:21:25.506Z,4.68
2023-03-12T11:24:31.972Z,4.80
2023-03-12T11:27:48.775Z,4.70
2023-03-12T11:30:30.430Z,4.71
2023-03-12T11:36:23.691Z,4.62
2023-03-12T11:39:31.733Z,4.70
2023-03-12T11:42:17.032Z,4.65
2023-03-12T11:44:50.510Z,4.68
2023-03-12T11:48:10.197Z,4.64
2023-03-12T11:50:59.596Z,4.68
2023-03-12T11:53:52.739Z,4.73
2023-03-12T11:56:36.993Z,4.73
2023-03-12T11:59:37.512Z,4.75
2023-03-12T12:02:45.086Z,4.71
2023-03-12T12:05:29.889Z,4.85
2023-03-12T12:08:13.486Z,4.81
2023-03-12T12:11:08.731Z,4.72
2023-03-12T12:13:49.432Z,4.62
2023-03-12T12:16:55.841Z,4.62
2023-03-12T12:19:42.504Z,4.64
2023-03-12T12:22:17.203Z,4.58
2023-03-12T12:25:27.033Z,4.47
2023-03-12T12:27:56.285Z,4.49
2023-03-12T12:33:29.697Z,4.57
2023-03-12T12:35:58.523Z,4.50
2023-03-12T12:38:34.071Z,4.49
2023-03-12T12:41:10.611Z,4.51
2023-03-12T12:44:00.993Z,4.47
2023-03-12T12:49:54.018Z,4.52
2023-03-12T12:52:39.144Z,4.45
2023-03-12T12:55:20.298Z,4.50
2023-03-12T12:58:08.253Z,4.54
2023-03-12T13:01:02.293Z,4.51
2023-03-12T13:03:33.876Z,4.54
2023-03-12T13:06:17.200Z,4.62
2023-03-12T13:09:14.042Z,4.64
2023-03-12T13:12:28.980Z,4.59
2023-03-12T13:15:07.400Z,4.66
2023-03-12T13:17:58.739Z,4.67
2023-03-12T13:20:49.520Z,4.68
2023-03-12T13:23:38.595Z,4.71
2023-03-12T13:26:31.181Z,4.83
2023-03-12T13:29:17.490Z,4.74
2023-03-12T13:31:45.755Z,4.75
2023-03-12T13:34:18.767Z,4.87
2023-03-12T13:36:51.941Z,4.84
2023-03-12T13:39:32.451Z,4.96
2023-03-12T13:42:01.475Z,4.98
2023-03-12T13:44:37.799Z,4.99
2023-03-12T13:47:44.716Z,4.91
2023-03-12T13:50:20.299Z,4.97
2023-03-12T13:53:01.554Z,5.02
2023-03-12T13:55:46.511Z,5.02
2023-03-12T13:58:27.008Z,4.99
2023-03-12T14:01:10.542Z,5.10
2023-03-12T14:03:45.625Z,5.13
2023-03-12T14:06:22.164Z,5.21
2023-03-12T14:09:33.884Z,5.20
2023-03-12T14:12:36.530Z,5.30
2023-03-12T14:15:41.136Z,5.30
2023-03-12T14:18:29.242Z,5.32
2023-03-12T14:21:00.716Z,5.28
2023-03-12T14:23:36.027Z,5.34
2023-03-12T14:26:23.144Z,5.37
2023-03-12T14:29:13.109Z,5.33
2023-03-12T14:31:40.571Z,5.36
2023-03-12T14:34:19.206Z,5.42
2023-03-12T14:37:09.917Z,5.48
2023-03-12T14:39:42.776Z,5.49
2023-03-12T14:42:10.386Z,5.45
2023-03-12T14:44:39.064Z,5.52
2023-03-12T14:47:11.768Z,5.49
2023-03-12T14:49:46.632Z,5.59
2023-03-12T14:52:21.446Z,5.65
2023-03-12T14:55:18.846Z,5.63
2023-03-12T14:57:46.791Z,5.61
2023-03-12T15:00:28.382Z,5.68
2023-03-12T15:02:57.709Z,5.67
2023-03-12T15:05:32.383Z,5.70
2023-03-12T15:08:09.964Z,5.75
2023-03-12T15:10:42.253Z,5.74
2023-03-12T15:13:14.078Z,5.83
2023-03-12T15:15:51.018Z,5.78
2023-03-12T15:18:31.349Z,5.73
2023-03-12T15:20:59.653Z,5.78
2023-03-12T15:23:28.840Z,5.78
2023-03-12T15:26:20.431Z,5.77
2023-03-12T15:29:08.585Z,5.88
2023-03-12T15:31:53.718Z,5.91
2023-03-12T15:34:40.016Z,5.99
2023-03-12T15:37:39.151Z,5.98
2023-03-12T15:40:20.705Z,6.02
2023-03-12T15:42:49.592Z,5.96
2023-03-12T15:45:30.769Z,6.02
2023-03-12T15:47:58.180Z,5.96
2023-03-12T15:50:51.795Z,5.95
2023-03-12T15:53:18.883Z,6.00
2023-03-12T15:56:06.029Z,6.03
2023-03-12T15:58:35.882Z,6.01
2023-03-12T16:01:29.747Z,6.06
2023-03-12T16:03:56.909Z,6.01
2023-03-12T16:06:29.970Z,6.03
2023-03-12T16:08:58.727Z,6.06
2023-03-12T16:11:28.337Z,6.11
2023-03-12T16:14:05.497Z,6.15
2023-03-12T16:16:33.276Z,6.12
2023-03-12T16:19:00.392Z,6.13
2023-03-12T16:21:27.487Z,6.21
2023-03-12T16:23:54.144Z,6.25
2023-03-12T16:26:20.844Z,6.23
2023-03-12T16:28:48.852Z,6.23
2023-03-12T16:31:16.698Z,6.20
2023-03-12T16:33:44.852Z,6.25
2023-03-12T16:36:16.359Z,6.17
2023-03-12T16:38:44.187Z,6.18
2023-03-12T16:41:16.741Z,6.13
2023-03-12T16:43:47.356Z,6.25
2023-03-12T16:46:16.328Z,6.23
2023-03-12T16:48:43.377Z,6.21
2023-03-12T16:51:14.904Z,6.27
2023-03-12T16:53:42.164Z,6.25
2023-03-12T16:56:17.877Z,6.19
2023-03-12T16:58:45.467Z,6.26
2023-03-12T17:01:14.401Z,6.19
2023-03-12T17:03:44.038Z,6.26
2023-03-12T17:06:16.890Z,6.27
2023-03-12T17:08:43.862Z,6.29
2023-03-12T17:11:24.079Z,6.32
2023-03-12T17:13:59.677Z,6.37
2023-03-12T17:16:26.856Z,6.34
2023-03-12T17:18:53.768Z,6.36
2023-03-12T17:21:21.256Z,6.37
2023-03-12T17:23:50.473Z,6.39
2023-03-12T17:26:18.378Z,7.57
2023-03-12T17:28:45.796Z,7.82
2023-03-12T17:31:12.620Z,8.19
2023-03-12T17:33:39.942Z,8.16
2023-03-12T17:36:08.830Z,7.82
2023-03-12T17:38:36.493Z,8.00
2023-03-12T17:41:09.396Z,8.15
2023-03-12T17:43:38.246Z,7.72
2023-03-12T17:46:06.426Z,7.53
2023-03-12T17:48:33.198Z,7.26
2023-03-12T17:51:00.253Z,7.08
2023-03-12T17:53:26.976Z,7.00
2023-03-12T17:55:53.575Z,7.01
2023-03-12T17:58:20.313Z,6.90
2023-03-12T18:00:47.708Z,6.93
2023-03-12T18:03:14.418Z,6.90
2023-03-12T18:05:44.032Z,6.92
2023-03-12T18:08:11.096Z,6.89
2023-03-12T18:10:40.723Z,6.84
2023-03-12T18:13:07.672Z,6.84
2023-03-12T18:15:34.325Z,6.89
2023-03-12T18:18:01.328Z,6.76
2023-03-12T18:20:37.691Z,6.77
2023-03-12T18:23:05.665Z,6.87
2023-03-12T18:25:32.286Z,6.92
2023-03-12T18:27:58.941Z,6.95
2023-03-12T18:30:26.337Z,6.88
2023-03-12T18:32:53.090Z,6.89
2023-03-12T18:35:19.895Z,6.93
2023-03-12T18:37:46.541Z,6.91
2023-03-12T18:40:14.134Z,6.98
2023-03-12T18:42:44.592Z,6.93
2023-03-12T18:45:12.472Z,6.93
2023-03-12T18:47:39.734Z,6.94
2023-03-12T18:50:08.045Z,6.95
2023-03-12T18:52:35.210Z,6.96
2023-03-12T18:55:02.101Z,7.03
2023-03-12T18:57:28.826Z,7.13
2023-03-12T18:59:56.177Z,7.07
2023-03-12T19:02:23.886Z,7.12
2023-03-12T19:04:56.121Z,7.08
2023-03-12T19:07:23.102Z,7.15
2023-03-12T19:09:49.759Z,7.15
2023-03-12T19:12:16.429Z,7.09
2023-03-12T19:14:43.370Z,7.10
2023-03-12T19:17:10.001Z,7.11
2023-03-12T19:19:36.851Z,7.09
2023-03-12T19:22:05.121Z,7.07
2023-03-12T19:24:32.031Z,7.04
2023-03-12T19:26:59.099Z,7.07
2023-03-12T19:29:25.922Z,7.09
2023-03-12T19:31:53.212Z,7.09
2023-03-12T19:34:20.200Z,7.04
2023-03-12T19:36:46.803Z,7.03
2023-03-12T19:39:21.052Z,7.08
2023-03-12T19:41:48.952Z,7.16
2023-03-12T19:44:15.612Z,7.19
2023-03-12T19:46:43.372Z,7.11
2023-03-12T19:49:10.160Z,7.12
2023-03-12T19:51:36.905Z,7.08
2023-03-12T19:54:03.977Z,7.05
2023-03-12T19:56:30.533Z,6.96
2023-03-12T19:58:57.141Z,7.00
2023-03-12T20:01:25.023Z,7.00
2023-03-12T20:03:51.689Z,7.00
2023-03-12T20:06:18.596Z,6.97
2023-03-12T20:08:45.781Z,6.98
2023-03-12T20:11:12.945Z,6.95
2023-03-12T20:13:39.821Z,6.92
2023-03-12T20:16:07.843Z,6.92
2023-03-12T20:18:34.527Z,6.91
2023-03-12T20:21:01.175Z,6.96
2023-03-12T20:23:27.883Z,6.99
2023-03-12T20:25:54.578Z,7.02
2023-03-12T20:28:21.184Z,7.03
2023-03-12T20:30:48.713Z,7.11
2023-03-12T20:33:15.462Z,7.15
2023-03-12T20:35:42.304Z,7.27
2023-03-12T20:38:09.202Z,7.28
2023-03-12T20:40:35.954Z,7.34
2023-03-12T20:43:05.293Z,7.37
2023-03-12T20:45:33.983Z,7.47
2023-03-12T20:48:01.350Z,7.61
2023-03-12T20:50:28.582Z,7.66
2023-03-12T20:52:55.386Z,7.70
2023-03-12T20:55:22.400Z,7.71
2023-03-12T20:57:49.240Z,7.79
2023-03-12T21:00:16.629Z,7.79
2023-03-12T21:02:43.278Z,7.71
2023-03-12T21:05:11.638Z,7.80
2023-03-12T21:07:38.830Z,7.87
2023-03-12T21:10:07.105Z,7.86
2023-03-12T21:12:34.074Z,7.97
2023-03-12T21:15:06.514Z,8.01
2023-03-12T21:17:34.280Z,8.02
2023-03-12T21:20:02.072Z,8.00
2023-03-12T21:22:32.072Z,7.97
2023-03-12T21:24:59.051Z,7.91
2023-03-12T21:27:26.264Z,7.87
2023-03-12T21:29:53.871Z,7.92
2023-03-12T21:32:21.447Z,7.89
2023-03-12T21:34:48.780Z,7.83
2023-03-12T21:37:16.270Z,7.81
2023-03-12T21:39:44.396Z,7.81
2023-03-12T21:42:11.063Z,7.75
2023-03-12T21:44:38.415Z,7.71
2023-03-12T21:47:05.883Z,7.71
2023-03-12T21:49:34.141Z,7.69
2023-03-12T21:52:01.509Z,7.68
2023-03-12T21:54:34.914Z,7.69
2023-03-12T21:57:03.079Z,7.71
2023-03-12T21:59:30.837Z,7.71
2023-03-12T22:01:58.654Z,7.68
2023-03-12T22:04:25.618Z,7.69
2023-03-12T22:06:52.413Z,7.72
2023-03-12T22:09:19.044Z,7.78
2023-03-12T22:11:45.871Z,7.79
2023-03-12T22:14:12.581Z,7.86
2023-03-12T22:16:39.266Z,7.82
2023-03-12T22:19:07.681Z,7.88
2023-03-12T22:21:34.374Z,7.90
2023-03-12T22:24:01.670Z,7.86
2023-03-12T22:26:28.881Z,7.88
2023-03-12T22:28:57.649Z,7.91
2023-03-12T22:31:26.343Z,7.89
2023-03-12T22:33:54.127Z,7.89
2023-03-12T22:36:21.747Z,7.89
2023-03-12T22:38:48.664Z,7.92
2023-03-12T22:41:17.199Z,7.88
2023-03-12T22:43:44.163Z,7.96
2023-03-12T22:46:11.391Z,7.91
2023-03-12T22:48:38.561Z,7.86
2023-03-12T22:51:05.984Z,7.90
2023-03-12T22:53:33.301Z,7.83
2023-03-12T22:56:02.470Z,7.79
2023-03-12T22:58:29.637Z,7.77
2023-03-12T23:01:04.232Z,7.82
2023-03-12T23:03:31.732Z,7.70
2023-03-12T23:05:59.044Z,7.71
2023-03-12T23:08:26.240Z,7.72
2023-03-12T23:10:59.094Z,7.74
2023-03-12T23:13:27.094Z,7.75
2023-03-12T23:15:54.509Z,7.76
2023-03-12T23:18:21.361Z,7.70
2023-03-12T23:20:48.093Z,7.69
2023-03-12T23:23:16.047Z,7.72
2023-03-12T23:25:42.738Z,7.64
2023-03-12T23:28:09.352Z,7.65
2023-03-12T23:30:35.929Z,7.68
2023-03-12T23:33:02.622Z,7.63
2023-03-12T23:35:29.280Z,7.72
2023-03-12T23:37:56.760Z,7.76
2023-03-12T23:40:23.366Z,7.73
2023-03-12T23:42:50.031Z,7.73
2023-03-12T23:45:17.043Z,7.72
2023-03-12T23:47:43.868Z,7.60
2023-03-12T23:50:11.581Z,7.56
2023-03-12T23:52:38.386Z,7.53
2023-03-12T23:55:05.807Z,7.48
2023-03-12T23:57:32.503Z,7.42
2023-03-12T23:59:59.131Z,7.37
